Tunker, Indiana
Current Conditions -  °F | °C
As of 10:55 AM on Friday 21 Nov 2014 (Local Time) from KHHG Reporting Station
Clear Clear  
Wind Chill: 24°   Ceiling: Unl
Heat Index: 24°   Visibility: 10mi
Dew Point: 13°   Wind: 3mph
Humidity: 64%   Direction: 240°WSW
Pressure: 30.5"   Gusts: NA
Location:  41.056°N, 85.6112°W
Report Text: KHHG 211555Z AUTO 24003KT 10SM CLR M05/M10 A3050 RMK AO2 T10471105
Loading
Personal Weather Stations






























Interactive Weather Map New forecast layout! Learn more

10-Day Weather Forecast

Advertisements
Track Severe Weather on mobile